首页
METAR-TAF:

METAR-TAF

机场 :

Fort Dodge, 艾奥瓦州, 美国

纬度: 42-33N, 经度: 094-11W, 海拔: 354米

当前天气观测

该预报发布于19分钟前的18:56 UTC
风速25节,风向,有时为29节阵风
温度 8°C
湿度 93%
气压 1009 hPa
能見度: 12.9公里
阴天层高于1000英尺
小雨

METAR: KFOD 211856Z AUTO 08025G29KT 8SM -RA OVC010 08/07 A2979 RMK AO2 PK WND 08029/1856 CIG 009V013 PRESFR SLP119 P0001 T00830072

时间: 14:15 (19:15 UTC)

预报

该预报发布于1小时和45分钟前的17:30 UTC
预报有效从21日的 18点(UTC)到 22日的 18点(UTC)
风速22节,风向,有时为30节阵风
能見度: 9.7公里
阴天层高于1200英尺
小阵雨
从 21日的 2200点(UTC)
风速26节,风向,有时为35节阵风
能見度: 4.8公里
阴天层高于800英尺
阵雨, 轻雾
从 22日的 0500点(UTC)
风速21节,风向东转东南
能見度: 10公里
阴天层高于500英尺
附近有阵雨
从 22日的 1000点(UTC)
风速19节,风向东南
能見度: 10公里
多云层高于1000英尺
从 22日的 1500点(UTC)
风速19节,风向,有时为27节阵风
能見度: 10公里
散云层高于1500英尺
多云层高于5000英尺

TAF: KFOD 211730Z 2118/2218 10022G30KT 6SM -SHRA OVC012 FM212200 08026G35KT 3SM SHRA BR OVC008 FM220500 11021KT P6SM VCSH OVC005 FM221000 13019KT P6SM BKN010 FM221500 19019G27KT P6SM SCT015 BKN050

超过4000个机场的气象观测和天气预报(METAR&TAF报告)。

可查询的气象台以黄色和红色小点在地图上表示。

将鼠标移到小点上方,可查看气象台名称。

然后点击查看天气观测和预报。

如需切换地图:点击带黑十字的绿色按钮放大地图;点击带横线的绿色按钮缩小地图;或者点击绿色箭头查看邻近地区的地图。


METAR-TAF: